Time;durP1;ratioP1;P1;durP2;ratioP2;P2;SDS_P1;SDS_P2;PMS_P1;PMS_P2;Temp;Humidity;BMP_temperature;BMP_pressure;BME280_temperature;BME280_humidity;BME280_pressure;Samples;Min_cycle;Max_cycle;Signal;HPM_P1;HPM_P2
2023/10/14 00:01:06;;;;;;;3.93;2.33;;;19.90;77.20;;;;;;5017327;28;20586;-65
2023/10/14 00:03:35;;;;;;;5.53;2.20;;;19.90;78.50;;;;;;5009326;28;20431;-65
2023/10/14 00:06:07;;;;;;;6.43;2.20;;;19.90;79.90;;;;;;5012374;28;20426;-65
2023/10/14 00:08:34;;;;;;;5.90;2.43;;;19.90;80.20;;;;;;5008943;28;20427;-63
2023/10/14 00:11:06;;;;;;;14.80;3.17;;;19.90;81.50;;;;;;5017225;28;20816;-65
2023/10/14 00:13:36;;;;;;;7.57;2.60;;;20.00;82.20;;;;;;5009947;28;20999;-65
2023/10/14 00:16:09;;;;;;;8.70;2.60;;;20.00;83.20;;;;;;5012460;28;20450;-65
2023/10/14 00:18:35;;;;;;;5.17;2.10;;;20.10;82.70;;;;;;5009560;28;20484;-65
2023/10/14 00:21:01;;;;;;;4.33;2.80;;;20.10;82.80;;;;;;5012064;28;20469;-65
2023/10/14 00:23:27;;;;;;;6.90;2.43;;;20.10;84.60;;;;;;5009345;28;20452;-65
2023/10/14 00:25:54;;;;;;;3.50;2.07;;;20.10;86.10;;;;;;5011853;28;20241;-65
2023/10/14 00:28:20;;;;;;;6.97;2.47;;;20.00;89.00;;;;;;5009733;28;20175;-65
2023/10/14 00:30:48;;;;;;;6.27;2.80;;;19.90;90.30;;;;;;5011699;28;20424;-65
2023/10/14 00:33:14;;;;;;;4.17;2.60;;;19.80;90.80;;;;;;5008631;28;20182;-66
2023/10/14 00:35:40;;;;;;;5.53;2.17;;;19.70;92.60;;;;;;5011589;28;20543;-65
2023/10/14 00:38:13;;;;;;;12.50;3.30;;;19.40;93.80;;;;;;5008995;28;20206;-65
2023/10/14 00:40:39;;;;;;;7.20;3.03;;;19.10;94.50;;;;;;5010050;28;21114;-64
2023/10/14 00:43:06;;;;;;;5.73;2.70;;;19.00;94.70;;;;;;5009439;28;20434;-64
2023/10/14 00:45:32;;;;;;;6.70;3.10;;;18.90;94.80;;;;;;5009487;28;20609;-65
2023/10/14 00:48:00;;;;;;;7.30;3.33;;;18.90;95.30;;;;;;5009151;28;20442;-65
2023/10/14 00:50:36;;;;;;;3.93;2.70;;;18.90;95.40;;;;;;5009109;28;20699;-65
2023/10/14 00:53:05;;;;;;;5.60;2.73;;;18.90;95.60;;;;;;5009744;28;20426;-65
2023/10/14 00:58:12;;;;;;;4.90;2.77;;;18.70;96.50;;;;;;5009078;28;20484;-65
2023/10/14 01:00:46;;;;;;;8.30;3.07;;;18.50;97.70;;;;;;5009158;28;20461;-64
2023/10/14 01:03:15;;;;;;;5.20;3.10;;;18.30;98.60;;;;;;5007563;28;20947;-65
2023/10/14 01:05:40;;;;;;;5.00;2.70;;;18.00;99.60;;;;;;5006926;28;20445;-64
2023/10/14 01:08:11;;;;;;;12.67;4.13;;;17.90;99.50;;;;;;5008576;28;20426;-64
2023/10/14 01:10:38;;;;;;;7.37;3.00;;;17.90;99.80;;;;;;5015407;28;20202;-64
2023/10/14 01:13:14;;;;;;;13.10;2.43;;;17.90;99.90;;;;;;5004762;28;20777;-65
2023/10/14 01:16:01;;;;;;;5.70;2.83;;;17.90;99.90;;;;;;5009453;28;20451;-65
2023/10/14 01:18:26;;;;;;;10.70;3.67;;;17.90;99.90;;;;;;5008510;28;20437;-64
2023/10/14 01:20:52;;;;;;;6.30;3.50;;;17.90;99.90;;;;;;5010957;28;20480;-64
2023/10/14 01:23:18;;;;;;;9.07;3.60;;;17.90;99.90;;;;;;5008326;28;20570;-64
2023/10/14 01:25:47;;;;;;;7.37;3.43;;;17.90;99.90;;;;;;5011115;28;20183;-64
2023/10/14 01:28:21;;;;;;;7.53;3.73;;;17.90;99.90;;;;;;5008890;28;20210;-65
2023/10/14 01:31:07;;;;;;;9.70;3.77;;;17.90;99.90;;;;;;5011508;28;20875;-64
2023/10/14 01:33:36;;;;;;;9.60;3.93;;;17.90;99.90;;;;;;5007995;28;20759;-64
2023/10/14 01:36:02;;;;;;;12.80;4.53;;;18.00;99.90;;;;;;5010823;28;20476;-64
2023/10/14 01:38:30;;;;;;;5.80;3.07;;;18.00;99.90;;;;;;5008132;28;20500;-65
2023/10/14 01:40:56;;;;;;;9.33;3.20;;;18.00;99.90;;;;;;5010394;28;20462;-64
2023/10/14 01:43:24;;;;;;;5.43;2.57;;;18.00;99.80;;;;;;5006543;28;20422;-64
2023/10/14 01:46:00;;;;;;;6.03;3.57;;;18.00;99.90;;;;;;5005133;28;20175;-64
2023/10/14 01:48:30;;;;;;;8.53;3.60;;;18.00;99.90;;;;;;5005858;28;20433;-64
2023/10/14 01:50:57;;;;;;;5.13;2.90;;;18.00;99.90;;;;;;5010525;28;20458;-64
2023/10/14 01:53:28;;;;;;;7.87;2.77;;;18.00;99.90;;;;;;5006335;28;20425;-64
2023/10/14 01:55:59;;;;;;;9.83;3.77;;;18.00;99.90;;;;;;5007604;28;20409;-64
2023/10/14 02:01:04;;;;;;;9.60;3.17;;;18.00;99.90;;;;;;5010333;28;20548;-64
2023/10/14 02:03:35;;;;;;;7.13;2.90;;;18.00;99.90;;;;;;5005068;28;20430;-65
2023/10/14 02:06:10;;;;;;;6.97;3.90;;;18.00;99.90;;;;;;5010215;28;20433;-64
2023/10/14 02:08:36;;;;;;;5.80;3.20;;;18.00;99.90;;;;;;5007347;28;20430;-64
2023/10/14 02:11:02;;;;;;;6.60;3.07;;;18.00;99.90;;;;;;5014681;28;20488;-65
2023/10/14 02:13:28;;;;;;;8.00;3.33;;;17.90;99.90;;;;;;5007805;28;20426;-65
2023/10/14 02:15:59;;;;;;;8.07;3.83;;;18.00;99.90;;;;;;5010395;28;20565;-64
2023/10/14 02:18:25;;;;;;;7.67;3.70;;;18.00;99.90;;;;;;5007306;28;20572;-64
2023/10/14 02:20:57;;;;;;;8.10;3.53;;;18.00;99.90;;;;;;5011500;28;20962;-64
2023/10/14 02:23:28;;;;;;;9.07;3.03;;;18.00;99.90;;;;;;5011847;28;20422;-65
2023/10/14 02:25:58;;;;;;;9.13;4.13;;;18.10;99.90;;;;;;5012295;28;20410;-64
2023/10/14 02:28:28;;;;;;;5.47;3.07;;;18.00;99.90;;;;;;5011803;28;20931;-63
2023/10/14 02:30:59;;;;;;;5.37;3.33;;;18.10;99.90;;;;;;5006362;28;20580;-62
2023/10/14 02:33:25;;;;;;;5.47;3.33;;;18.10;99.90;;;;;;5011058;28;20933;-63
2023/10/14 02:35:50;;;;;;;10.10;3.73;;;18.20;99.90;;;;;;5014024;28;20422;-62
2023/10/14 02:38:17;;;;;;;5.90;3.50;;;18.20;99.90;;;;;;5011660;28;20203;-62
2023/10/14 02:40:43;;;;;;;6.53;3.10;;;18.20;99.80;;;;;;5013663;28;20202;-63
2023/10/14 02:43:08;;;;;;;21.53;3.57;;;18.20;99.90;;;;;;5012104;28;20424;-63
2023/10/14 02:45:39;;;;;;;5.70;3.17;;;18.20;99.80;;;;;;5013791;28;20234;-62
2023/10/14 02:48:05;;;;;;;6.63;3.00;;;18.30;99.80;;;;;;5011584;28;20176;-63
2023/10/14 02:50:32;;;;;;;7.60;3.37;;;18.30;99.60;;;;;;5011245;28;20424;-62
2023/10/14 02:53:06;;;;;;;5.20;3.33;;;18.40;99.60;;;;;;5026507;28;20187;-63
2023/10/14 02:55:50;;;;;;;7.50;3.37;;;18.30;99.60;;;;;;5011116;28;20941;-63
2023/10/14 02:58:20;;;;;;;5.30;2.50;;;18.40;99.50;;;;;;5011170;28;20766;-63
2023/10/14 03:00:47;;;;;;;6.30;3.00;;;18.40;99.40;;;;;;5012972;28;20511;-64
2023/10/14 03:03:12;;;;;;;5.50;3.17;;;18.40;99.30;;;;;;5009874;28;20886;-63
2023/10/14 03:05:53;;;;;;;5.80;3.20;;;18.50;99.20;;;;;;5011881;28;20422;-63
2023/10/14 03:08:22;;;;;;;7.17;3.73;;;18.50;99.30;;;;;;5009451;28;20624;-63
2023/10/14 03:10:59;;;;;;;4.67;2.37;;;18.50;99.20;;;;;;5019221;28;20464;-63
2023/10/14 03:13:29;;;;;;;9.73;2.90;;;18.50;99.20;;;;;;5011132;28;20548;-62
2023/10/14 03:15:55;;;;;;;7.90;3.07;;;18.50;99.20;;;;;;5013417;28;20414;-63
2023/10/14 03:18:30;;;;;;;10.03;3.13;;;18.50;99.20;;;;;;5010740;28;20422;-63
2023/10/14 03:23:25;;;;;;;8.90;3.07;;;18.40;99.30;;;;;;5010995;28;20437;-63
2023/10/14 03:25:53;;;;;;;6.40;3.47;;;18.40;99.70;;;;;;5005067;28;20175;-62
2023/10/14 03:28:24;;;;;;;9.77;3.53;;;18.40;99.30;;;;;;5011022;28;20418;-63
2023/10/14 03:30:58;;;;;;;10.10;3.47;;;18.40;99.30;;;;;;5005118;28;20444;-63
2023/10/14 03:33:32;;;;;;;12.33;3.50;;;18.40;99.00;;;;;;5009230;28;20501;-63
2023/10/14 03:36:05;;;;;;;8.70;3.93;;;18.40;99.20;;;;;;5006185;28;20405;-63
2023/10/14 03:41:10;;;;;;;6.43;3.83;;;18.40;99.20;;;;;;5012353;28;20865;-62
2023/10/14 03:43:48;;;;;;;8.03;3.10;;;18.50;99.10;;;;;;5008251;28;20510;-62
2023/10/14 03:46:14;;;;;;;7.10;4.23;;;18.50;99.30;;;;;;5012482;28;20502;-63
2023/10/14 03:48:47;;;;;;;7.80;3.80;;;18.50;99.70;;;;;;5007676;28;20427;-63
2023/10/14 03:51:24;;;;;;;5.43;2.83;;;;;;;;;;5012597;28;20915;-63
2023/10/14 03:53:54;;;;;;;10.50;3.90;;;18.40;99.70;;;;;;5002928;28;20959;-63
2023/10/14 03:56:27;;;;;;;7.93;3.77;;;18.30;99.90;;;;;;5012201;28;20417;-63
2023/10/14 03:59:00;;;;;;;8.73;2.97;;;18.30;99.90;;;;;;5004654;28;20460;-63
2023/10/14 04:04:23;;;;;;;7.90;4.40;;;18.20;99.90;;;;;;5008078;28;20421;-63
2023/10/14 04:09:46;;;;;;;11.23;3.37;;;18.20;99.90;;;;;;5013927;28;20424;-63
2023/10/14 04:17:38;;;;;;;7.37;3.57;;;18.10;99.90;;;;;;5010046;28;20423;-63
2023/10/14 04:22:39;;;;;;;10.90;3.40;;;18.10;99.90;;;;;;5009579;28;20195;-64
2023/10/14 04:25:22;;;;;;;7.50;3.33;;;18.00;99.90;;;;;;5012006;28;20414;-63
2023/10/14 04:35:23;;;;;;;7.37;3.80;;;17.90;99.90;;;;;;5011774;28;20414;-63
2023/10/14 04:37:52;;;;;;;7.60;3.43;;;17.90;99.90;;;;;;5009323;28;20442;-63
2023/10/14 04:46:00;;;;;;;7.43;4.20;;;17.80;99.90;;;;;;5009363;28;20413;-63
2023/10/14 04:48:28;;;;;;;12.73;4.37;;;17.70;99.90;;;;;;5006400;28;20457;-63
2023/10/14 04:50:57;;;;;;;8.00;2.67;;;17.70;99.90;;;;;;5011506;28;20493;-63
2023/10/14 04:53:26;;;;;;;5.73;2.87;;;17.70;99.90;;;;;;5006967;28;20460;-63
2023/10/14 04:55:55;;;;;;;6.20;3.23;;;17.70;99.90;;;;;;5008056;28;20426;-63
2023/10/14 04:58:25;;;;;;;12.73;3.23;;;17.70;99.90;;;;;;5007553;28;20866;-63
2023/10/14 05:00:52;;;;;;;7.57;2.73;;;17.60;99.90;;;;;;5013507;28;20458;-63
2023/10/14 05:03:22;;;;;;;5.50;2.53;;;17.50;99.90;;;;;;5006722;28;20421;-64
2023/10/14 05:05:52;;;;;;;12.40;3.47;;;17.50;99.90;;;;;;5011041;28;20414;-63
2023/10/14 05:08:22;;;;;;;10.10;3.57;;;17.50;99.90;;;;;;5007434;28;20422;-63
2023/10/14 05:10:51;;;;;;;9.53;3.13;;;17.50;99.90;;;;;;5010947;28;20414;-63
2023/10/14 05:13:33;;;;;;;18.87;2.80;;;17.50;99.90;;;;;;5008954;28;20418;-63
2023/10/14 05:19:00;;;;;;;12.67;3.93;;;17.40;99.90;;;;;;5008972;28;20444;-64
2023/10/14 05:21:35;;;;;;;9.50;4.17;;;17.40;99.90;;;;;;5011109;28;20894;-63
2023/10/14 05:24:03;;;;;;;12.27;3.60;;;17.40;99.90;;;;;;5008929;28;20504;-63
2023/10/14 05:26:35;;;;;;;4.93;2.90;;;17.40;99.90;;;;;;5010740;28;20876;-63
2023/10/14 05:29:19;;;;;;;5.57;2.93;;;17.40;99.90;;;;;;5008940;28;20923;-62
2023/10/14 05:31:48;;;;;;;6.60;3.77;;;17.40;99.90;;;;;;5009180;28;20489;-63
2023/10/14 05:34:16;;;;;;;6.83;3.33;;;17.40;99.90;;;;;;5008780;28;20414;-62
2023/10/14 05:36:41;;;;;;;5.47;2.93;;;17.40;99.90;;;;;;5010933;28;20438;-63
2023/10/14 05:39:10;;;;;;;14.23;3.13;;;17.40;99.90;;;;;;5009078;28;20425;-62
2023/10/14 05:41:36;;;;;;;6.90;3.37;;;17.50;99.90;;;;;;5010518;28;20209;-63
2023/10/14 05:44:04;;;;;;;16.93;3.43;;;17.40;99.90;;;;;;5006879;28;20426;-63
2023/10/14 05:46:29;;;;;;;10.43;4.30;;;17.40;99.90;;;;;;5010352;28;20443;-63
2023/10/14 05:48:56;;;;;;;4.57;2.53;;;17.50;99.90;;;;;;5005871;28;20883;-62
2023/10/14 05:51:22;;;;;;;6.37;3.23;;;17.50;99.90;;;;;;5010512;28;20187;-62
2023/10/14 05:53:48;;;;;;;6.90;3.30;;;17.50;99.90;;;;;;5006442;28;20438;-63
2023/10/14 05:56:14;;;;;;;21.87;4.20;;;17.50;99.90;;;;;;5012401;28;20475;-63
2023/10/14 05:58:41;;;;;;;9.53;2.90;;;17.50;99.90;;;;;;5011066;28;20445;-63
2023/10/14 06:01:10;;;;;;;11.13;2.80;;;17.50;99.90;;;;;;5014491;28;20598;-63
2023/10/14 06:03:41;;;;;;;10.60;3.13;;;17.40;99.90;;;;;;5008805;28;20525;-63
2023/10/14 06:06:10;;;;;;;6.80;3.50;;;17.40;99.90;;;;;;5009419;28;20422;-63
2023/10/14 06:08:37;;;;;;;6.20;3.67;;;17.40;99.90;;;;;;5009635;28;20439;-63
2023/10/14 06:11:05;;;;;;;5.10;3.07;;;17.50;99.90;;;;;;5014542;28;20422;-63
2023/10/14 06:13:34;;;;;;;5.30;2.97;;;17.50;99.90;;;;;;5011572;28;20475;-63
2023/10/14 06:16:04;;;;;;;10.27;3.73;;;17.50;99.90;;;;;;5014075;28;20418;-63
2023/10/14 06:18:32;;;;;;;4.20;3.07;;;17.50;99.90;;;;;;5010814;28;20430;-63
2023/10/14 06:20:59;;;;;;;10.93;2.57;;;17.50;99.90;;;;;;5014281;28;20500;-63
2023/10/14 06:23:28;;;;;;;10.30;2.87;;;17.50;99.90;;;;;;5011853;28;20568;-63
2023/10/14 06:25:55;;;;;;;6.43;2.63;;;17.50;99.90;;;;;;5006688;28;20438;-63
2023/10/14 06:28:20;;;;;;;20.27;3.77;;;17.50;99.90;;;;;;5011799;28;20432;-63
2023/10/14 06:30:46;;;;;;;12.50;3.93;;;17.60;99.90;;;;;;5013914;28;20425;-63
2023/10/14 06:33:12;;;;;;;19.50;4.40;;;17.60;99.90;;;;;;5011351;28;20187;-63
2023/10/14 06:35:43;;;;;;;4.83;2.63;;;17.60;99.90;;;;;;5014118;28;20262;-63
2023/10/14 06:38:17;;;;;;;5.80;3.10;;;17.60;99.90;;;;;;5011847;28;20651;-63
2023/10/14 06:40:44;;;;;;;8.90;3.47;;;17.60;99.90;;;;;;5013872;28;20539;-63
2023/10/14 06:43:10;;;;;;;5.87;3.20;;;17.60;99.90;;;;;;5011204;28;20510;-63
2023/10/14 06:45:37;;;;;;;8.33;3.27;;;17.50;99.90;;;;;;5011455;28;20512;-63
2023/10/14 06:48:04;;;;;;;9.17;3.80;;;17.50;99.90;;;;;;5011412;28;20176;-63
2023/10/14 06:50:31;;;;;;;5.43;3.20;;;17.50;99.90;;;;;;5010931;28;20483;-63
2023/10/14 06:53:00;;;;;;;7.20;3.00;;;17.50;99.90;;;;;;5011505;28;20882;-63
2023/10/14 06:55:37;;;;;;;7.30;3.43;;;17.40;99.90;;;;;;5010578;28;20480;-63
2023/10/14 06:58:12;;;;;;;9.23;2.67;;;17.30;99.90;;;;;;5005300;28;20430;-63
2023/10/14 07:00:39;;;;;;;7.83;3.70;;;17.30;99.90;;;;;;5011435;28;20565;-63
2023/10/14 07:03:10;;;;;;;5.07;2.90;;;17.40;99.90;;;;;;5010436;28;20426;-63
2023/10/14 07:06:21;;;;;;;17.50;3.67;;;17.40;99.90;;;;;;5011201;28;20458;-63
2023/10/14 07:08:23;;;;;;;6.50;3.30;;;17.40;99.90;;;;;;5000285;28;20734;-63
2023/10/14 07:10:50;;;;;;;7.10;2.77;;;17.50;99.90;;;;;;5012942;28;20497;-63
2023/10/14 07:13:17;;;;;;;4.00;2.23;;;17.50;99.90;;;;;;5010940;28;20445;-63
2023/10/14 07:15:44;;;;;;;7.20;4.07;;;17.70;99.90;;;;;;5013160;28;20435;-64
2023/10/14 07:18:13;;;;;;;8.80;2.57;;;17.80;99.90;;;;;;5010947;28;20422;-63
2023/10/14 07:20:39;;;;;;;5.80;3.07;;;18.00;99.90;;;;;;5013088;28;20501;-63
2023/10/14 07:23:06;;;;;;;7.60;3.27;;;18.40;99.90;;;;;;5010456;28;20508;-63
2023/10/14 07:25:34;;;;;;;5.07;2.57;;;18.60;99.90;;;;;;5010563;28;20863;-63
2023/10/14 07:28:01;;;;;;;18.77;3.20;;;;;;;;;;5010970;28;20454;-63
2023/10/14 07:30:27;;;;;;;3.10;2.20;;;19.00;99.90;;;;;;5012770;28;20418;-63
2023/10/14 07:32:54;;;;;;;8.53;3.00;;;;;;;;;;5009698;28;20437;-63
2023/10/14 07:35:21;;;;;;;6.43;2.43;;;19.30;99.60;;;;;;5012792;28;20414;-63
2023/10/14 07:37:51;;;;;;;4.30;2.70;;;19.20;99.90;;;;;;5010740;28;20464;-64
2023/10/14 07:40:27;;;;;;;6.30;2.60;;;19.10;99.90;;;;;;5012715;28;20505;-63
2023/10/14 07:43:05;;;;;;;5.47;2.63;;;19.50;99.60;;;;;;5007300;28;20413;-63
2023/10/14 07:45:33;;;;;;;3.10;1.80;;;20.00;98.80;;;;;;5009781;28;20413;-64
2023/10/14 07:47:59;;;;;;;24.10;1.90;;;20.40;98.20;;;;;;5010158;28;20509;-64
2023/10/14 07:50:31;;;;;;;5.87;2.07;;;20.20;98.20;;;;;;5009450;28;20445;-63
2023/10/14 07:53:07;;;;;;;5.13;2.07;;;19.90;98.20;;;;;;5009894;28;20588;-63
2023/10/14 07:55:43;;;;;;;5.77;2.57;;;19.70;98.60;;;;;;5009751;28;20435;-64
2023/10/14 07:58:13;;;;;;;13.23;3.00;;;19.20;99.40;;;;;;5010211;28;20426;-64
2023/10/14 08:00:40;;;;;;;8.50;3.50;;;18.90;99.90;;;;;;5010418;28;20516;-63
2023/10/14 08:03:15;;;;;;;4.70;2.80;;;18.70;99.90;;;;;;5009362;28;20424;-63
2023/10/14 08:05:41;;;;;;;5.03;2.60;;;18.40;99.90;;;;;;5010634;28;21082;-64
2023/10/14 08:08:10;;;;;;;11.33;2.47;;;17.80;99.90;;;;;;5009911;28;21008;-64
2023/10/14 08:10:43;;;;;;;19.93;3.37;;;17.80;99.90;;;;;;5009997;28;20422;-63
2023/10/14 08:13:12;;;;;;;10.63;3.23;;;17.60;99.90;;;;;;5009579;28;20458;-65
2023/10/14 08:15:40;;;;;;;6.20;3.00;;;17.30;99.90;;;;;;5011631;28;20430;-64
2023/10/14 08:18:06;;;;;;;6.40;2.90;;;17.10;99.90;;;;;;5009355;28;20426;-64
2023/10/14 08:20:33;;;;;;;9.03;3.70;;;17.00;99.90;;;;;;5011660;28;20793;-64
2023/10/14 08:22:59;;;;;;;6.23;2.53;;;16.90;99.90;;;;;;5009524;28;20422;-64
2023/10/14 08:25:25;;;;;;;5.73;2.70;;;16.80;99.90;;;;;;5009141;28;20481;-64
2023/10/14 08:27:53;;;;;;;8.57;3.50;;;16.70;99.90;;;;;;5009939;28;20453;-64
2023/10/14 08:30:24;;;;;;;4.27;2.67;;;16.70;99.90;;;;;;5007909;28;20420;-64
2023/10/14 08:32:52;;;;;;;9.30;3.03;;;16.60;99.90;;;;;;5008464;28;20436;-65
2023/10/14 08:35:19;;;;;;;7.90;3.13;;;16.50;99.90;;;;;;5011702;28;20421;-65
2023/10/14 08:37:52;;;;;;;4.90;2.50;;;16.30;99.90;;;;;;5009517;28;20553;-64
2023/10/14 08:40:22;;;;;;;11.93;3.37;;;16.20;99.90;;;;;;5010888;28;20493;-64
2023/10/14 08:42:51;;;;;;;11.37;3.27;;;16.20;99.90;;;;;;5009307;28;20433;-64
2023/10/14 08:45:22;;;;;;;4.73;2.97;;;16.10;99.90;;;;;;5011595;28;20418;-64
2023/10/14 08:47:54;;;;;;;8.13;3.33;;;16.30;99.90;;;;;;5008967;28;20426;-64
2023/10/14 08:50:23;;;;;;;18.40;3.30;;;16.20;99.90;;;;;;5007626;28;20505;-64
2023/10/14 08:52:54;;;;;;;11.40;2.57;;;16.40;99.90;;;;;;5009320;28;20422;-64
2023/10/14 08:55:20;;;;;;;5.70;3.07;;;16.60;99.90;;;;;;5007355;28;20513;-64
2023/10/14 08:57:47;;;;;;;6.30;3.33;;;16.90;99.90;;;;;;5009514;28;20933;-64
2023/10/14 09:00:19;;;;;;;5.93;2.43;;;17.00;99.90;;;;;;5007454;28;20507;-64
2023/10/14 09:02:49;;;;;;;8.70;2.90;;;17.10;99.90;;;;;;5008329;28;20418;-64
2023/10/14 09:05:16;;;;;;;3.40;2.43;;;17.40;99.90;;;;;;5007727;28;20410;-64
2023/10/14 09:07:46;;;;;;;17.93;2.60;;;17.40;99.90;;;;;;5009566;28;20445;-64
2023/10/14 09:10:15;;;;;;;4.13;2.00;;;17.40;99.90;;;;;;5007602;28;20616;-64
2023/10/14 09:13:03;;;;;;;4.13;2.00;;;17.40;99.90;;;;;;5005751;28;20453;-63
2023/10/14 09:15:32;;;;;;;7.90;2.43;;;17.40;99.90;;;;;;5010811;28;20768;-65
2023/10/14 09:17:58;;;;;;;10.10;2.80;;;17.40;99.90;;;;;;5008815;28;20441;-65
2023/10/14 09:20:35;;;;;;;4.40;2.30;;;17.40;99.90;;;;;;5009222;28;20962;-65
2023/10/14 09:23:20;;;;;;;4.73;2.57;;;17.40;99.90;;;;;;5004148;28;20432;-64
2023/10/14 09:25:53;;;;;;;5.70;2.53;;;17.30;99.90;;;;;;5010689;28;20500;-65
2023/10/14 09:28:29;;;;;;;7.40;2.57;;;17.30;99.90;;;;;;5007920;28;20426;-65
2023/10/14 09:30:56;;;;;;;10.17;2.53;;;17.30;99.90;;;;;;5002348;28;20773;-65
2023/10/14 09:33:28;;;;;;;4.17;2.10;;;17.20;99.90;;;;;;5007717;28;20429;-65
2023/10/14 09:36:03;;;;;;;3.67;2.20;;;17.10;99.90;;;;;;5005719;28;20422;-65
2023/10/14 09:38:32;;;;;;;7.13;1.27;;;16.90;99.90;;;;;;5004266;28;20449;-65
2023/10/14 09:41:02;;;;;;;3.30;0.97;;;16.70;99.90;;;;;;5010042;28;20468;-65
2023/10/14 09:43:29;;;;;;;6.80;0.93;;;16.00;99.90;;;;;;5002698;28;20415;-65
2023/10/14 09:45:59;;;;;;;5.63;1.23;;;15.50;99.90;;;;;;5009379;28;20432;-63
2023/10/14 09:48:30;;;;;;;1.50;0.60;;;15.20;99.90;;;;;;5004527;28;20783;-62
2023/10/14 09:50:57;;;;;;;2.07;0.60;;;14.90;99.90;;;;;;5006900;28;20421;-63
2023/10/14 09:53:27;;;;;;;9.53;1.17;;;14.80;99.90;;;;;;5005931;28;20419;-62
2023/10/14 09:55:58;;;;;;;1.60;0.70;;;14.70;99.90;;;;;;5007726;28;20451;-63
2023/10/14 09:58:30;;;;;;;1.93;0.70;;;14.70;99.90;;;;;;5003503;28;20509;-63
2023/10/14 10:00:59;;;;;;;1.23;0.60;;;14.80;99.90;;;;;;5008700;28;20473;-64
2023/10/14 10:03:27;;;;;;;1.87;1.00;;;14.90;99.90;;;;;;5004167;28;20423;-63
2023/10/14 10:06:02;;;;;;;2.90;0.80;;;14.80;99.90;;;;;;5009252;28;20895;-63
2023/10/14 10:08:46;;;;;;;3.00;1.00;;;14.80;99.90;;;;;;5004800;28;20513;-62
2023/10/14 10:11:13;;;;;;;1.67;0.70;;;14.80;99.90;;;;;;5010169;28;20925;-62
2023/10/14 10:13:41;;;;;;;1.40;0.70;;;14.80;99.90;;;;;;5007047;28;20912;-63
2023/10/14 10:16:07;;;;;;;2.77;1.23;;;14.90;99.90;;;;;;5010268;28;20763;-63
2023/10/14 10:18:52;;;;;;;3.37;1.33;;;14.90;99.90;;;;;;5007620;28;20945;-64
2023/10/14 10:21:19;;;;;;;1.43;0.70;;;14.80;99.90;;;;;;5008114;28;21043;-63
2023/10/14 10:23:50;;;;;;;1.40;0.70;;;14.80;99.90;;;;;;5007490;28;21124;-63
2023/10/14 10:26:17;;;;;;;1.67;0.87;;;14.80;99.90;;;;;;5007397;28;20417;-64
2023/10/14 10:28:45;;;;;;;3.47;0.70;;;14.70;99.90;;;;;;5007437;28;20426;-64
2023/10/14 10:31:16;;;;;;;1.80;0.70;;;14.70;99.90;;;;;;5004492;28;20445;-66
2023/10/14 10:33:45;;;;;;;1.33;0.60;;;14.70;99.90;;;;;;5006763;28;20472;-65
2023/10/14 10:36:12;;;;;;;1.20;0.50;;;14.70;99.90;;;;;;5010063;28;20414;-64
2023/10/14 10:38:38;;;;;;;1.30;0.60;;;14.70;99.90;;;;;;5007827;28;20485;-64
2023/10/14 10:41:24;;;;;;;6.60;0.90;;;14.80;99.90;;;;;;5010148;28;20596;-63
2023/10/14 10:43:50;;;;;;;3.30;0.80;;;14.70;99.90;;;;;;5007864;28;20190;-65
2023/10/14 10:46:41;;;;;;;5.77;0.90;;;14.70;99.90;;;;;;5013679;28;20418;-65
2023/10/14 10:49:10;;;;;;;1.20;0.53;;;14.60;99.90;;;;;;5005312;28;20424;-63
2023/10/14 10:51:41;;;;;;;1.20;0.60;;;14.50;99.90;;;;;;5013099;28;20544;-64
2023/10/14 10:54:10;;;;;;;1.10;0.40;;;14.50;99.90;;;;;;5007723;28;20428;-63
2023/10/14 10:56:36;;;;;;;1.57;0.80;;;14.40;99.90;;;;;;5015517;28;20501;-64
2023/10/14 10:59:04;;;;;;;1.10;0.50;;;14.40;99.90;;;;;;5014058;28;20894;-64
2023/10/14 11:01:33;;;;;;;1.97;0.60;;;14.40;99.90;;;;;;5009796;28;20203;-63
2023/10/14 11:04:08;;;;;;;2.43;0.90;;;14.50;99.90;;;;;;5011289;28;21193;-63
2023/10/14 11:06:35;;;;;;;2.80;1.00;;;14.40;99.90;;;;;;5010347;28;20421;-63
2023/10/14 11:09:01;;;;;;;9.27;3.30;;;14.40;99.90;;;;;;5007725;28;20981;-63
2023/10/14 11:11:37;;;;;;;2.97;0.83;;;14.40;99.90;;;;;;5013361;28;20429;-63
2023/10/14 11:14:18;;;;;;;1.20;0.53;;;14.40;99.90;;;;;;5010315;28;20425;-64
2023/10/14 11:16:47;;;;;;;1.97;0.90;;;14.40;99.90;;;;;;5011525;28;20422;-64
2023/10/14 11:19:12;;;;;;;1.73;0.60;;;14.30;99.90;;;;;;5010242;28;20934;-64
2023/10/14 11:21:39;;;;;;;2.50;1.00;;;14.30;99.90;;;;;;5012256;28;20462;-64
2023/10/14 11:24:11;;;;;;;1.43;0.60;;;14.30;99.90;;;;;;5010767;28;20897;-64
2023/10/14 11:26:37;;;;;;;1.20;0.60;;;14.30;99.90;;;;;;5012858;28;20418;-63
2023/10/14 11:29:03;;;;;;;2.10;1.20;;;14.30;99.90;;;;;;5010978;28;20924;-63
2023/10/14 11:31:31;;;;;;;1.53;0.80;;;14.40;99.90;;;;;;5009743;28;20773;-64
2023/10/14 11:34:01;;;;;;;2.27;1.10;;;14.40;99.90;;;;;;5009902;28;20580;-64
2023/10/14 11:36:27;;;;;;;1.77;0.70;;;14.50;99.90;;;;;;5012462;28;20418;-64
2023/10/14 11:38:58;;;;;;;1.30;0.70;;;14.60;99.90;;;;;;5001915;28;20430;-64
2023/10/14 11:41:25;;;;;;;1.40;0.57;;;14.70;99.90;;;;;;5012277;28;20556;-64
2023/10/14 11:43:51;;;;;;;1.20;0.50;;;14.80;99.90;;;;;;5006555;28;20891;-64
2023/10/14 11:46:17;;;;;;;1.20;0.60;;;14.80;99.90;;;;;;5013016;28;20773;-63
2023/10/14 11:48:47;;;;;;;1.53;0.50;;;14.80;99.90;;;;;;5006941;28;20434;-64
2023/10/14 11:51:19;;;;;;;1.53;0.70;;;14.80;99.90;;;;;;5012566;28;20186;-64
2023/10/14 11:53:50;;;;;;;1.43;0.60;;;14.80;99.90;;;;;;5005607;28;20431;-64
2023/10/14 11:56:17;;;;;;;1.10;0.50;;;14.80;99.90;;;;;;5010972;28;20414;-64
2023/10/14 11:58:42;;;;;;;1.20;0.50;;;14.60;99.90;;;;;;5006559;28;20433;-64
2023/10/14 12:01:12;;;;;;;1.10;0.40;;;14.70;99.90;;;;;;5012285;28;20458;-64
2023/10/14 12:03:40;;;;;;;1.20;0.50;;;14.60;99.90;;;;;;5005623;28;20181;-64
2023/10/14 12:06:08;;;;;;;2.80;0.73;;;14.60;99.90;;;;;;5012330;28;20406;-65
2023/10/14 12:08:36;;;;;;;3.57;0.60;;;14.60;99.90;;;;;;5007056;28;20481;-64
2023/10/14 12:11:08;;;;;;;4.00;0.70;;;14.70;99.90;;;;;;5012200;28;20414;-64
2023/10/14 12:13:34;;;;;;;1.13;0.47;;;14.60;99.90;;;;;;5009001;28;20434;-63
2023/10/14 12:16:05;;;;;;;1.20;0.50;;;14.30;99.90;;;;;;5012269;28;20425;-63
2023/10/14 12:18:34;;;;;;;1.10;0.40;;;14.30;99.90;;;;;;5013482;28;20461;-64
2023/10/14 12:21:00;;;;;;;2.10;0.50;;;14.20;99.90;;;;;;5012022;28;20568;-64
2023/10/14 12:23:29;;;;;;;1.70;0.50;;;14.10;99.90;;;;;;5009553;28;20916;-63
2023/10/14 12:25:55;;;;;;;1.20;0.50;;;14.10;99.90;;;;;;5016485;28;20434;-64
2023/10/14 12:28:26;;;;;;;1.20;0.50;;;14.00;99.90;;;;;;5009908;28;20480;-65
2023/10/14 12:30:53;;;;;;;1.30;0.50;;;14.10;99.90;;;;;;5019795;28;20191;-64
2023/10/14 12:33:19;;;;;;;1.53;0.70;;;14.10;99.90;;;;;;5008702;28;20413;-64
2023/10/14 12:35:45;;;;;;;1.60;0.60;;;14.00;99.90;;;;;;5011322;28;20905;-64
2023/10/14 12:38:15;;;;;;;2.03;0.70;;;14.00;99.90;;;;;;5007978;28;20523;-64
2023/10/14 12:40:43;;;;;;;1.80;0.60;;;13.90;99.90;;;;;;5009814;28;20469;-64
2023/10/14 12:43:12;;;;;;;1.93;0.80;;;13.80;99.90;;;;;;5008174;28;20769;-64
2023/10/14 12:45:38;;;;;;;1.20;0.50;;;13.70;99.90;;;;;;5008679;28;20426;-64
2023/10/14 12:48:10;;;;;;;1.40;0.60;;;13.60;99.90;;;;;;5008896;28;20426;-64
2023/10/14 12:50:40;;;;;;;2.47;0.63;;;13.50;99.90;;;;;;5006285;28;20808;-64
2023/10/14 12:53:08;;;;;;;3.13;0.97;;;13.40;99.90;;;;;;5002405;28;20448;-65
2023/10/14 12:55:35;;;;;;;1.20;0.50;;;13.30;99.90;;;;;;5002129;28;20521;-64
2023/10/14 12:58:02;;;;;;;1.27;0.53;;;13.20;99.90;;;;;;5002074;28;20532;-65
2023/10/14 13:00:31;;;;;;;1.80;0.90;;;13.10;99.90;;;;;;5002999;28;20476;-64
2023/10/14 13:02:58;;;;;;;2.20;0.97;;;13.10;99.90;;;;;;5002035;28;20885;-64
2023/10/14 13:05:25;;;;;;;2.43;1.10;;;12.90;99.90;;;;;;5002059;28;20434;-64
2023/10/14 13:07:52;;;;;;;1.30;0.63;;;12.90;99.90;;;;;;5001825;28;20879;-65
2023/10/14 13:10:18;;;;;;;1.83;0.87;;;12.90;99.90;;;;;;5001986;28;20434;-65
2023/10/14 13:12:55;;;;;;;4.70;0.80;;;12.80;99.90;;;;;;4994554;28;20442;-64
2023/10/14 13:15:34;;;;;;;2.23;0.80;;;12.80;99.90;;;;;;5001360;28;20460;-64
2023/10/14 13:18:02;;;;;;;2.07;1.07;;;12.80;99.90;;;;;;5000092;28;20532;-64
2023/10/14 13:20:30;;;;;;;1.90;0.73;;;12.70;99.90;;;;;;5002098;28;20468;-65
2023/10/14 13:22:58;;;;;;;8.77;1.33;;;12.80;99.90;;;;;;4998240;28;20438;-65
2023/10/14 13:25:24;;;;;;;5.53;1.60;;;12.70;99.90;;;;;;4998382;28;20425;-64
2023/10/14 13:27:51;;;;;;;4.60;1.00;;;13.00;99.90;;;;;;4997254;28;20435;-64
2023/10/14 13:30:22;;;;;;;2.50;1.00;;;12.80;99.90;;;;;;4998407;28;20434;-64
2023/10/14 13:32:58;;;;;;;1.97;0.73;;;12.80;99.90;;;;;;4997237;28;20580;-65
2023/10/14 13:35:24;;;;;;;7.77;1.20;;;12.70;99.90;;;;;;4997658;28;21413;-64
2023/10/14 13:37:50;;;;;;;4.43;0.70;;;12.70;99.90;;;;;;4995372;28;20966;-65